SWA1203 MROC-KHOU
Flight info
| Callsign | SWA1203 |
|---|---|
| Flight time | 3h 13m |
| Altitude | 36000 |
| Route | NANJO3U ULAPO UA502 LISPA DCT 1341N08637W DCT MESKI UZ512 BZE UB753 MID UL208 DUTNA L208 PEGLG BAYYY5 |
| Aircraft | B38M/M-SDE1FGHILORVWXY/HB1 |
Departure
| Time | 2026-05-07 19:17 |
|---|---|
| Airport | Juan Santamaría International Airport (MROC) |
Arrival
| Time | 2026-05-07 22:31 |
|---|---|
| Airport | William P. Hobby Airport (KHOU) |
| Time | Latitude | Longitude | Altitude | Speed | Heading |
|---|---|---|---|---|---|
| 2026-05-07 18:56 | 9.99716 | -84.20429 | 3019 ft | 0 kts | 338° |
| 2026-05-07 19:06 | 9.99691 | -84.20419 | 3020 ft | 3 kts | 338° |
| 2026-05-07 19:06 | 9.99672 | -84.20411 | 3016 ft | 2 kts | 338° |
| 2026-05-07 19:07 | 9.99670 | -84.20410 | 3015 ft | 0 kts | 338° |
| 2026-05-07 19:11 | 9.99673 | -84.20412 | 3016 ft | 2 kts | 339° |
| 2026-05-07 19:11 | 9.99687 | -84.20412 | 3021 ft | 3 kts | 28° |
| 2026-05-07 19:11 | 9.99701 | -84.20369 | 3017 ft | 12 kts | 86° |
| 2026-05-07 19:11 | 9.99719 | -84.20267 | 3016 ft | 16 kts | 73° |
| 2026-05-07 19:12 | 9.99756 | -84.20162 | 3021 ft | 16 kts | 66° |
| 2026-05-07 19:12 | 9.99796 | -84.20061 | 3018 ft | 12 kts | 79° |
| 2026-05-07 19:12 | 9.99789 | -84.20021 | 3017 ft | 5 kts | 122° |
| 2026-05-07 19:12 | 9.99743 | -84.19994 | 3016 ft | 10 kts | 158° |
| 2026-05-07 19:13 | 9.99665 | -84.19964 | 3016 ft | 13 kts | 160° |
| 2026-05-07 19:13 | 9.99587 | -84.19914 | 3022 ft | 14 kts | 118° |
| 2026-05-07 19:13 | 9.99598 | -84.19805 | 3025 ft | 18 kts | 71° |
| 2026-05-07 19:13 | 9.99641 | -84.19680 | 3023 ft | 17 kts | 69° |
| 2026-05-07 19:14 | 9.99692 | -84.19578 | 3023 ft | 14 kts | 64° |
| 2026-05-07 19:14 | 9.99710 | -84.19566 | 3025 ft | 2 kts | 338° |
| 2026-05-07 19:14 | 9.99749 | -84.19585 | 3024 ft | 9 kts | 334° |
| 2026-05-07 19:14 | 9.99766 | -84.19593 | 3022 ft | 0 kts | 334° |
| 2026-05-07 19:15 | 9.99776 | -84.19598 | 3025 ft | 5 kts | 334° |
| 2026-05-07 19:16 | 9.99834 | -84.19624 | 3024 ft | 10 kts | 337° |
| 2026-05-07 19:16 | 9.99857 | -84.19647 | 3025 ft | 3 kts | 249° |
| 2026-05-07 19:16 | 9.99855 | -84.19651 | 3022 ft | 2 kts | 248° |
| 2026-05-07 19:16 | 9.99788 | -84.19827 | 3018 ft | 59 kts | 249° |
| 2026-05-07 19:17 | 9.99570 | -84.20407 | 3010 ft | 117 kts | 249° |
| 2026-05-07 19:17 | 9.99222 | -84.21336 | 3017 ft | 161 kts | 249° |
| 2026-05-07 19:17 | 9.98821 | -84.22429 | 3534 ft | 165 kts | 250° |
| 2026-05-07 19:17 | 9.98400 | -84.23562 | 4016 ft | 179 kts | 249° |
| 2026-05-07 19:18 | 9.97921 | -84.24774 | 4570 ft | 191 kts | 248° |
| 2026-05-07 19:18 | 9.97406 | -84.26050 | 5005 ft | 205 kts | 250° |
| 2026-05-07 19:18 | 9.97211 | -84.27543 | 5290 ft | 225 kts | 281° |
| 2026-05-07 19:18 | 9.97879 | -84.28967 | 5856 ft | 227 kts | 315° |
| 2026-05-07 19:19 | 9.99209 | -84.29846 | 6377 ft | 236 kts | 339° |
| 2026-05-07 19:19 | 10.00774 | -84.30548 | 6807 ft | 255 kts | 336° |
| 2026-05-07 19:19 | 10.02442 | -84.31362 | 7191 ft | 275 kts | 336° |
| 2026-05-07 19:19 | 10.04215 | -84.32238 | 7611 ft | 288 kts | 335° |
| 2026-05-07 19:20 | 10.06024 | -84.33130 | 8329 ft | 291 kts | 336° |
| 2026-05-07 19:20 | 10.07844 | -84.34024 | 8993 ft | 295 kts | 336° |
| 2026-05-07 19:20 | 10.09700 | -84.34935 | 9668 ft | 299 kts | 336° |
| 2026-05-07 19:20 | 10.11487 | -84.36041 | 10351 ft | 304 kts | 323° |
| 2026-05-07 19:21 | 10.13160 | -84.37395 | 11130 ft | 310 kts | 323° |
| 2026-05-07 19:21 | 10.14870 | -84.38769 | 11831 ft | 315 kts | 324° |
| 2026-05-07 19:21 | 10.16619 | -84.40167 | 12353 ft | 328 kts | 324° |
| 2026-05-07 19:21 | 10.18465 | -84.41638 | 12714 ft | 344 kts | 324° |
| 2026-05-07 19:22 | 10.20379 | -84.43162 | 13240 ft | 352 kts | 325° |
| 2026-05-07 19:22 | 10.22313 | -84.44703 | 13962 ft | 355 kts | 325° |
| 2026-05-07 19:22 | 10.24272 | -84.46261 | 14585 ft | 359 kts | 325° |
| 2026-05-07 19:22 | 10.26240 | -84.47829 | 15298 ft | 361 kts | 325° |
| 2026-05-07 19:23 | 10.28227 | -84.49412 | 15945 ft | 364 kts | 325° |
| 2026-05-07 19:23 | 10.30208 | -84.50988 | 16606 ft | 367 kts | 325° |
| 2026-05-07 19:23 | 10.32225 | -84.52595 | 17259 ft | 370 kts | 325° |
| 2026-05-07 19:23 | 10.34257 | -84.54213 | 17902 ft | 372 kts | 325° |
| 2026-05-07 19:24 | 10.36307 | -84.55844 | 18441 ft | 375 kts | 324° |
| 2026-05-07 19:24 | 10.38376 | -84.57493 | 18896 ft | 380 kts | 324° |
| 2026-05-07 19:24 | 10.40466 | -84.59157 | 19380 ft | 383 kts | 324° |
| 2026-05-07 19:24 | 10.42568 | -84.60833 | 19872 ft | 386 kts | 324° |
| 2026-05-07 19:25 | 10.44661 | -84.62500 | 20359 ft | 389 kts | 324° |
| 2026-05-07 19:25 | 10.46792 | -84.64199 | 20837 ft | 392 kts | 324° |
| 2026-05-07 19:25 | 10.48948 | -84.65917 | 21319 ft | 395 kts | 325° |
| 2026-05-07 19:25 | 10.51117 | -84.67647 | 21780 ft | 397 kts | 325° |
| 2026-05-07 19:26 | 10.53302 | -84.69389 | 22206 ft | 401 kts | 325° |
| 2026-05-07 19:26 | 10.55502 | -84.71144 | 22658 ft | 404 kts | 325° |
| 2026-05-07 19:26 | 10.57724 | -84.72917 | 23099 ft | 407 kts | 325° |
| 2026-05-07 19:26 | 10.59966 | -84.74705 | 23523 ft | 410 kts | 325° |
| 2026-05-07 19:27 | 10.62221 | -84.76506 | 23890 ft | 413 kts | 325° |
| 2026-05-07 19:27 | 10.64463 | -84.78296 | 24256 ft | 415 kts | 325° |
| 2026-05-07 19:27 | 10.66743 | -84.80116 | 24644 ft | 417 kts | 324° |
| 2026-05-07 19:27 | 10.68903 | -84.82112 | 25015 ft | 421 kts | 317° |
| 2026-05-07 19:28 | 10.70992 | -84.84214 | 25382 ft | 423 kts | 318° |
| 2026-05-07 19:28 | 10.73108 | -84.86306 | 25747 ft | 425 kts | 318° |
| 2026-05-07 19:28 | 10.75239 | -84.88395 | 26114 ft | 427 kts | 319° |
| 2026-05-07 19:28 | 10.77387 | -84.90494 | 26475 ft | 429 kts | 319° |
| 2026-05-07 19:29 | 10.79544 | -84.92599 | 26833 ft | 431 kts | 318° |
| 2026-05-07 19:29 | 10.81710 | -84.94711 | 27183 ft | 433 kts | 318° |
| 2026-05-07 19:29 | 10.83865 | -84.96814 | 27524 ft | 435 kts | 318° |
| 2026-05-07 19:29 | 10.86054 | -84.98950 | 27860 ft | 437 kts | 318° |
| 2026-05-07 19:30 | 10.88255 | -85.01099 | 28186 ft | 439 kts | 318° |
| 2026-05-07 19:30 | 10.90471 | -85.03262 | 28510 ft | 442 kts | 318° |
| 2026-05-07 19:30 | 10.92699 | -85.05438 | 28820 ft | 444 kts | 318° |
| 2026-05-07 19:30 | 10.94935 | -85.07621 | 29088 ft | 448 kts | 319° |
| 2026-05-07 19:31 | 10.97192 | -85.09827 | 29353 ft | 450 kts | 318° |
| 2026-05-07 19:31 | 10.99449 | -85.12033 | 29765 ft | 450 kts | 318° |
| 2026-05-07 19:31 | 11.01721 | -85.14253 | 29940 ft | 455 kts | 318° |
| 2026-05-07 19:31 | 11.04005 | -85.16486 | 30236 ft | 456 kts | 319° |
| 2026-05-07 19:32 | 11.06328 | -85.18697 | 30403 ft | 460 kts | 320° |
| 2026-05-07 19:32 | 11.08633 | -85.20886 | 30739 ft | 459 kts | 319° |
| 2026-05-07 19:32 | 11.10970 | -85.23108 | 31006 ft | 460 kts | 319° |
| 2026-05-07 19:32 | 11.13312 | -85.25340 | 31309 ft | 460 kts | 318° |
| 2026-05-07 19:33 | 11.15656 | -85.27572 | 31537 ft | 463 kts | 318° |
| 2026-05-07 19:33 | 11.18009 | -85.29815 | 31781 ft | 464 kts | 319° |
| 2026-05-07 19:33 | 11.20372 | -85.32065 | 31958 ft | 468 kts | 319° |
| 2026-05-07 19:33 | 11.22750 | -85.34333 | 32270 ft | 467 kts | 319° |
| 2026-05-07 19:34 | 11.25128 | -85.36599 | 32507 ft | 469 kts | 318° |
| 2026-05-07 19:34 | 11.27505 | -85.38866 | 32804 ft | 468 kts | 318° |
| 2026-05-07 19:34 | 11.29889 | -85.41140 | 32998 ft | 471 kts | 318° |
| 2026-05-07 19:34 | 11.32285 | -85.43427 | 33237 ft | 472 kts | 319° |
| 2026-05-07 19:35 | 11.34691 | -85.45721 | 33393 ft | 476 kts | 319° |
| 2026-05-07 19:35 | 11.37112 | -85.48032 | 33623 ft | 476 kts | 319° |
| 2026-05-07 19:35 | 11.39736 | -85.50055 | 33924 ft | 470 kts | 333° |
| 2026-05-07 19:35 | 11.42630 | -85.51499 | 34256 ft | 467 kts | 335° |
| 2026-05-07 19:36 | 11.45553 | -85.52962 | 34488 ft | 468 kts | 335° |
| 2026-05-07 19:36 | 11.48488 | -85.54406 | 34777 ft | 466 kts | 336° |
| 2026-05-07 19:36 | 11.51408 | -85.55828 | 35067 ft | 465 kts | 335° |
| 2026-05-07 19:36 | 11.54329 | -85.57241 | 35358 ft | 463 kts | 335° |
| 2026-05-07 19:37 | 11.56258 | -85.58175 | 35550 ft | 462 kts | 335° |
| 2026-05-07 19:37 | 11.59161 | -85.59578 | 35823 ft | 461 kts | 335° |
| 2026-05-07 19:37 | 11.64939 | -85.62374 | 35882 ft | 456 kts | 335° |
| 2026-05-07 19:38 | 11.70698 | -85.65162 | 35889 ft | 458 kts | 335° |
| 2026-05-07 19:38 | 11.76460 | -85.67953 | 35891 ft | 458 kts | 335° |
| 2026-05-07 19:39 | 11.82192 | -85.70730 | 35889 ft | 458 kts | 335° |
| 2026-05-07 19:39 | 11.87961 | -85.73526 | 35886 ft | 458 kts | 335° |
| 2026-05-07 19:40 | 11.93721 | -85.76321 | 35889 ft | 458 kts | 335° |
| 2026-05-07 19:40 | 11.99479 | -85.79114 | 35882 ft | 458 kts | 335° |
| 2026-05-07 19:41 | 12.05222 | -85.81900 | 35879 ft | 460 kts | 335° |
| 2026-05-07 19:41 | 12.11016 | -85.84716 | 35881 ft | 461 kts | 335° |
| 2026-05-07 19:42 | 12.16809 | -85.87531 | 35886 ft | 461 kts | 335° |
| 2026-05-07 19:42 | 12.22597 | -85.90345 | 35881 ft | 460 kts | 335° |
| 2026-05-07 19:43 | 12.28393 | -85.93164 | 35880 ft | 461 kts | 335° |
| 2026-05-07 19:43 | 12.34198 | -85.95988 | 35879 ft | 461 kts | 335° |
| 2026-05-07 19:44 | 12.39955 | -85.98792 | 35877 ft | 461 kts | 336° |
| 2026-05-07 19:44 | 12.45773 | -86.01625 | 35888 ft | 463 kts | 335° |
| 2026-05-07 19:45 | 12.51587 | -86.04459 | 35883 ft | 463 kts | 335° |
| 2026-05-07 19:45 | 12.57406 | -86.07297 | 35882 ft | 463 kts | 335° |
| 2026-05-07 19:46 | 12.63196 | -86.10121 | 35905 ft | 463 kts | 335° |
| 2026-05-07 19:46 | 12.69006 | -86.12956 | 35897 ft | 463 kts | 335° |
| 2026-05-07 19:47 | 12.74823 | -86.15797 | 35920 ft | 463 kts | 336° |
| 2026-05-07 19:47 | 12.80640 | -86.18640 | 35914 ft | 463 kts | 335° |
| 2026-05-07 19:48 | 12.86450 | -86.21480 | 35919 ft | 462 kts | 336° |
| 2026-05-07 19:48 | 12.92256 | -86.24320 | 35938 ft | 462 kts | 336° |
| 2026-05-07 19:49 | 12.98034 | -86.27146 | 35944 ft | 462 kts | 335° |
| 2026-05-07 19:49 | 13.03846 | -86.29992 | 35952 ft | 462 kts | 336° |
| 2026-05-07 19:50 | 13.09654 | -86.32838 | 35952 ft | 462 kts | 336° |
| 2026-05-07 19:50 | 13.15460 | -86.35683 | 35941 ft | 462 kts | 335° |
| 2026-05-07 19:51 | 13.21239 | -86.38515 | 35944 ft | 463 kts | 335° |
| 2026-05-07 19:51 | 13.27049 | -86.41367 | 35946 ft | 462 kts | 336° |
| 2026-05-07 19:52 | 13.32856 | -86.44219 | 35950 ft | 462 kts | 335° |
| 2026-05-07 19:52 | 13.38673 | -86.47075 | 35952 ft | 463 kts | 336° |
| 2026-05-07 19:53 | 13.44485 | -86.49931 | 35942 ft | 462 kts | 336° |
| 2026-05-07 19:53 | 13.50254 | -86.52768 | 35958 ft | 462 kts | 335° |
| 2026-05-07 19:54 | 13.56051 | -86.55619 | 35953 ft | 462 kts | 335° |
| 2026-05-07 19:54 | 13.61850 | -86.58473 | 35948 ft | 462 kts | 336° |
| 2026-05-07 19:55 | 13.67665 | -86.61325 | 35952 ft | 462 kts | 338° |
| 2026-05-07 19:55 | 13.73545 | -86.63916 | 35955 ft | 462 kts | 338° |
| 2026-05-07 19:56 | 13.79453 | -86.66543 | 35956 ft | 462 kts | 338° |
| 2026-05-07 19:56 | 13.85348 | -86.69170 | 35962 ft | 461 kts | 338° |
| 2026-05-07 19:57 | 13.91245 | -86.71799 | 35985 ft | 461 kts | 338° |
| 2026-05-07 19:57 | 13.97137 | -86.74426 | 35988 ft | 461 kts | 338° |
| 2026-05-07 19:58 | 14.02996 | -86.77041 | 35984 ft | 461 kts | 338° |
| 2026-05-07 19:58 | 14.08886 | -86.79673 | 36044 ft | 461 kts | 338° |
| 2026-05-07 19:59 | 14.14777 | -86.82304 | 36042 ft | 461 kts | 338° |
| 2026-05-07 19:59 | 14.20659 | -86.84933 | 36053 ft | 461 kts | 338° |
| 2026-05-07 20:00 | 14.26541 | -86.87565 | 36057 ft | 461 kts | 338° |
| 2026-05-07 20:00 | 14.32397 | -86.90187 | 36061 ft | 461 kts | 338° |
| 2026-05-07 20:01 | 14.38286 | -86.92823 | 36049 ft | 461 kts | 338° |
| 2026-05-07 20:01 | 14.44177 | -86.95462 | 36030 ft | 461 kts | 338° |
| 2026-05-07 20:02 | 14.50034 | -86.98088 | 36020 ft | 462 kts | 338° |
| 2026-05-07 20:02 | 14.55940 | -87.00738 | 36017 ft | 462 kts | 337° |
| 2026-05-07 20:03 | 14.61837 | -87.03385 | 36022 ft | 462 kts | 338° |
| 2026-05-07 20:03 | 14.67747 | -87.06039 | 36001 ft | 462 kts | 338° |
| 2026-05-07 20:04 | 14.73611 | -87.08674 | 36011 ft | 462 kts | 338° |
| 2026-05-07 20:04 | 14.79511 | -87.11327 | 35992 ft | 462 kts | 337° |
| 2026-05-07 20:05 | 14.85405 | -87.13979 | 35987 ft | 462 kts | 338° |
| 2026-05-07 20:05 | 14.91301 | -87.16634 | 35976 ft | 462 kts | 338° |
| 2026-05-07 20:06 | 14.97196 | -87.19290 | 35970 ft | 462 kts | 338° |
| 2026-05-07 20:06 | 15.03086 | -87.21944 | 35974 ft | 462 kts | 337° |
| 2026-05-07 20:07 | 15.08946 | -87.24586 | 35947 ft | 462 kts | 337° |
| 2026-05-07 20:07 | 15.14841 | -87.27248 | 35925 ft | 461 kts | 338° |
| 2026-05-07 20:08 | 15.20736 | -87.29909 | 35927 ft | 462 kts | 337° |
| 2026-05-07 20:08 | 15.26635 | -87.32574 | 35925 ft | 462 kts | 337° |
| 2026-05-07 20:09 | 15.32493 | -87.35223 | 35925 ft | 462 kts | 337° |
| 2026-05-07 20:10 | 15.41351 | -87.39231 | 35921 ft | 463 kts | 337° |
| 2026-05-07 20:10 | 15.47264 | -87.41908 | 35901 ft | 462 kts | 337° |
| 2026-05-07 20:11 | 15.53135 | -87.44568 | 35898 ft | 462 kts | 337° |
| 2026-05-07 20:11 | 15.59032 | -87.47242 | 35895 ft | 463 kts | 337° |
| 2026-05-07 20:12 | 15.64926 | -87.49916 | 35888 ft | 462 kts | 337° |
| 2026-05-07 20:12 | 15.70816 | -87.52588 | 35883 ft | 461 kts | 337° |
| 2026-05-07 20:13 | 15.76708 | -87.55265 | 35883 ft | 461 kts | 336° |
| 2026-05-07 20:13 | 15.82552 | -87.57923 | 35887 ft | 461 kts | 336° |
| 2026-05-07 20:14 | 15.88438 | -87.60599 | 35883 ft | 462 kts | 337° |
| 2026-05-07 20:14 | 15.94319 | -87.63275 | 35872 ft | 461 kts | 337° |
| 2026-05-07 20:15 | 16.00206 | -87.65957 | 35878 ft | 461 kts | 336° |
| 2026-05-07 20:15 | 16.06078 | -87.68632 | 35881 ft | 460 kts | 336° |
| 2026-05-07 20:16 | 16.11914 | -87.71293 | 35874 ft | 460 kts | 336° |
| 2026-05-07 20:16 | 16.17790 | -87.73974 | 35873 ft | 461 kts | 336° |
| 2026-05-07 20:17 | 16.23671 | -87.76659 | 35877 ft | 461 kts | 336° |
| 2026-05-07 20:17 | 16.29507 | -87.79326 | 35882 ft | 461 kts | 336° |
| 2026-05-07 20:18 | 16.35385 | -87.82014 | 35884 ft | 461 kts | 336° |
| 2026-05-07 20:18 | 16.41266 | -87.84704 | 35876 ft | 460 kts | 336° |
| 2026-05-07 20:19 | 16.47135 | -87.87390 | 35881 ft | 460 kts | 336° |
| 2026-05-07 20:19 | 16.53007 | -87.90080 | 35885 ft | 460 kts | 336° |
| 2026-05-07 20:20 | 16.58836 | -87.92752 | 35886 ft | 460 kts | 336° |
| 2026-05-07 20:20 | 16.64706 | -87.95445 | 35886 ft | 460 kts | 336° |
| 2026-05-07 20:21 | 16.70576 | -87.98139 | 35883 ft | 460 kts | 336° |
| 2026-05-07 20:21 | 16.76436 | -88.00829 | 35893 ft | 460 kts | 336° |
| 2026-05-07 20:22 | 16.82288 | -88.03519 | 35883 ft | 460 kts | 336° |
| 2026-05-07 20:22 | 16.88113 | -88.06198 | 35883 ft | 460 kts | 336° |
| 2026-05-07 20:23 | 16.94087 | -88.08627 | 35907 ft | 460 kts | 340° |
| 2026-05-07 20:23 | 17.00115 | -88.10908 | 35892 ft | 461 kts | 339° |
| 2026-05-07 20:24 | 17.06141 | -88.13218 | 35893 ft | 461 kts | 339° |
| 2026-05-07 20:24 | 17.11148 | -88.15141 | 35891 ft | 461 kts | 339° |
| 2026-05-07 20:25 | 17.17184 | -88.17437 | 35897 ft | 461 kts | 339° |
| 2026-05-07 20:25 | 17.23213 | -88.19721 | 35902 ft | 461 kts | 339° |
| 2026-05-07 20:26 | 17.29213 | -88.21996 | 35902 ft | 461 kts | 339° |
| 2026-05-07 20:26 | 17.35248 | -88.24286 | 35904 ft | 461 kts | 339° |
| 2026-05-07 20:27 | 17.41280 | -88.26577 | 35902 ft | 461 kts | 339° |
| 2026-05-07 20:27 | 17.47306 | -88.28865 | 35899 ft | 460 kts | 339° |
| 2026-05-07 20:28 | 17.53322 | -88.31157 | 35900 ft | 460 kts | 338° |
| 2026-05-07 20:28 | 17.59325 | -88.33499 | 35901 ft | 460 kts | 338° |
| 2026-05-07 20:29 | 17.65332 | -88.35837 | 35908 ft | 460 kts | 339° |
| 2026-05-07 20:29 | 17.71292 | -88.38159 | 35905 ft | 460 kts | 339° |
| 2026-05-07 20:30 | 17.77290 | -88.40498 | 35906 ft | 460 kts | 338° |
| 2026-05-07 20:30 | 17.83277 | -88.42834 | 35909 ft | 459 kts | 338° |
| 2026-05-07 20:31 | 17.89269 | -88.45175 | 35915 ft | 459 kts | 338° |
| 2026-05-07 20:31 | 17.95255 | -88.47501 | 35908 ft | 459 kts | 338° |
| 2026-05-07 20:32 | 18.01267 | -88.49830 | 35907 ft | 460 kts | 339° |
| 2026-05-07 20:32 | 18.07245 | -88.52149 | 35904 ft | 460 kts | 339° |
| 2026-05-07 20:33 | 18.13253 | -88.54480 | 35915 ft | 460 kts | 339° |
| 2026-05-07 20:33 | 18.19256 | -88.56820 | 35904 ft | 460 kts | 338° |
| 2026-05-07 20:34 | 18.25225 | -88.59153 | 35907 ft | 460 kts | 338° |
| 2026-05-07 20:34 | 18.31221 | -88.61497 | 35909 ft | 459 kts | 338° |
| 2026-05-07 20:35 | 18.37219 | -88.63843 | 35914 ft | 459 kts | 338° |
| 2026-05-07 20:35 | 18.43220 | -88.66186 | 35910 ft | 460 kts | 338° |
| 2026-05-07 20:36 | 18.49206 | -88.68526 | 35904 ft | 458 kts | 338° |
| 2026-05-07 20:36 | 18.55184 | -88.70861 | 35906 ft | 458 kts | 338° |
| 2026-05-07 20:37 | 18.61124 | -88.73185 | 35908 ft | 458 kts | 338° |
| 2026-05-07 20:37 | 18.67101 | -88.75525 | 35901 ft | 458 kts | 338° |
| 2026-05-07 20:38 | 18.73081 | -88.77868 | 35890 ft | 458 kts | 338° |
| 2026-05-07 20:38 | 18.79054 | -88.80208 | 35895 ft | 457 kts | 338° |
| 2026-05-07 20:39 | 18.84997 | -88.82540 | 35890 ft | 455 kts | 338° |
| 2026-05-07 20:39 | 18.90893 | -88.84856 | 35892 ft | 455 kts | 338° |
| 2026-05-07 20:40 | 18.96838 | -88.87192 | 35889 ft | 457 kts | 338° |
| 2026-05-07 20:40 | 19.02808 | -88.89540 | 35889 ft | 457 kts | 338° |
| 2026-05-07 20:41 | 19.08771 | -88.91886 | 35889 ft | 457 kts | 338° |
| 2026-05-07 20:41 | 19.14737 | -88.94235 | 35886 ft | 457 kts | 337° |
| 2026-05-07 20:42 | 19.20654 | -88.96567 | 35884 ft | 456 kts | 338° |
| 2026-05-07 20:42 | 19.26602 | -88.98914 | 35880 ft | 456 kts | 338° |
| 2026-05-07 20:43 | 19.32539 | -89.01258 | 35881 ft | 455 kts | 338° |
| 2026-05-07 20:43 | 19.38476 | -89.03604 | 35876 ft | 455 kts | 337° |
| 2026-05-07 20:44 | 19.44418 | -89.05955 | 35872 ft | 455 kts | 338° |
| 2026-05-07 20:44 | 19.50316 | -89.08289 | 35874 ft | 455 kts | 337° |
| 2026-05-07 20:45 | 19.56242 | -89.10638 | 35866 ft | 454 kts | 338° |
| 2026-05-07 20:45 | 19.62170 | -89.12988 | 35867 ft | 454 kts | 338° |
| 2026-05-07 20:46 | 19.68090 | -89.15337 | 35860 ft | 454 kts | 338° |
| 2026-05-07 20:46 | 19.74016 | -89.17686 | 35866 ft | 454 kts | 338° |
| 2026-05-07 20:47 | 19.79905 | -89.20021 | 35868 ft | 454 kts | 338° |
| 2026-05-07 20:47 | 19.85833 | -89.22372 | 35867 ft | 453 kts | 337° |
| 2026-05-07 20:48 | 19.91747 | -89.24720 | 35863 ft | 453 kts | 337° |
| 2026-05-07 20:48 | 19.97635 | -89.27058 | 35863 ft | 454 kts | 338° |
| 2026-05-07 20:49 | 20.03556 | -89.29399 | 35861 ft | 454 kts | 338° |
| 2026-05-07 20:49 | 20.09481 | -89.31744 | 35860 ft | 454 kts | 338° |
| 2026-05-07 20:50 | 20.15407 | -89.34096 | 35866 ft | 454 kts | 337° |
| 2026-05-07 20:50 | 20.21311 | -89.36471 | 35860 ft | 453 kts | 337° |
| 2026-05-07 20:51 | 20.27207 | -89.38842 | 35860 ft | 453 kts | 337° |
| 2026-05-07 20:51 | 20.33067 | -89.41199 | 35854 ft | 453 kts | 337° |
| 2026-05-07 20:52 | 20.38976 | -89.43575 | 35850 ft | 453 kts | 337° |
| 2026-05-07 20:52 | 20.44867 | -89.45943 | 35849 ft | 453 kts | 337° |
| 2026-05-07 20:53 | 20.50768 | -89.48309 | 35855 ft | 452 kts | 337° |
| 2026-05-07 20:53 | 20.56663 | -89.50674 | 35850 ft | 452 kts | 337° |
| 2026-05-07 20:54 | 20.62548 | -89.53038 | 35853 ft | 452 kts | 337° |
| 2026-05-07 20:54 | 20.68433 | -89.55403 | 35854 ft | 452 kts | 337° |
| 2026-05-07 20:55 | 20.74280 | -89.57755 | 35868 ft | 452 kts | 337° |
| 2026-05-07 20:55 | 20.80165 | -89.60124 | 35875 ft | 452 kts | 337° |
| 2026-05-07 20:56 | 20.86045 | -89.62493 | 35879 ft | 451 kts | 337° |
| 2026-05-07 20:56 | 20.91919 | -89.64861 | 35879 ft | 451 kts | 337° |
| 2026-05-07 20:57 | 20.97703 | -89.67474 | 35882 ft | 450 kts | 334° |
| 2026-05-07 20:57 | 21.03428 | -89.70095 | 35879 ft | 450 kts | 334° |
| 2026-05-07 20:58 | 21.09192 | -89.72730 | 35872 ft | 450 kts | 335° |
| 2026-05-07 20:58 | 21.14964 | -89.75370 | 35869 ft | 450 kts | 334° |
| 2026-05-07 20:59 | 21.20727 | -89.78007 | 35861 ft | 449 kts | 334° |
| 2026-05-07 20:59 | 21.26426 | -89.80617 | 35862 ft | 449 kts | 334° |
| 2026-05-07 21:00 | 21.32171 | -89.83261 | 35870 ft | 449 kts | 334° |
| 2026-05-07 21:00 | 21.37911 | -89.85907 | 35873 ft | 449 kts | 334° |
| 2026-05-07 21:01 | 21.43656 | -89.88558 | 35881 ft | 449 kts | 334° |
| 2026-05-07 21:01 | 21.49360 | -89.91192 | 35879 ft | 448 kts | 334° |
| 2026-05-07 21:02 | 21.55102 | -89.93845 | 35883 ft | 449 kts | 334° |
| 2026-05-07 21:02 | 21.60848 | -89.96503 | 35884 ft | 449 kts | 334° |
| 2026-05-07 21:03 | 21.66587 | -89.99159 | 35887 ft | 449 kts | 334° |
| 2026-05-07 21:03 | 21.72331 | -90.01822 | 35884 ft | 449 kts | 334° |
| 2026-05-07 21:04 | 21.78044 | -90.04473 | 35884 ft | 450 kts | 334° |
| 2026-05-07 21:04 | 21.83787 | -90.07140 | 35890 ft | 449 kts | 334° |
| 2026-05-07 21:05 | 21.89526 | -90.09808 | 35886 ft | 448 kts | 334° |
| 2026-05-07 21:05 | 21.95226 | -90.12460 | 35895 ft | 448 kts | 334° |
| 2026-05-07 21:06 | 22.00958 | -90.15128 | 35894 ft | 448 kts | 334° |
| 2026-05-07 21:06 | 22.06689 | -90.17800 | 35901 ft | 448 kts | 334° |
| 2026-05-07 21:07 | 22.12421 | -90.20473 | 35902 ft | 448 kts | 334° |
| 2026-05-07 21:07 | 22.18143 | -90.23145 | 35900 ft | 447 kts | 333° |
| 2026-05-07 21:08 | 22.23825 | -90.25800 | 35908 ft | 447 kts | 333° |
| 2026-05-07 21:08 | 22.29543 | -90.28474 | 35908 ft | 447 kts | 333° |
| 2026-05-07 21:09 | 22.35259 | -90.31148 | 35913 ft | 447 kts | 333° |
| 2026-05-07 21:09 | 22.40972 | -90.33822 | 35910 ft | 447 kts | 333° |
| 2026-05-07 21:10 | 22.46682 | -90.36496 | 35922 ft | 447 kts | 333° |
| 2026-05-07 21:10 | 22.52347 | -90.39153 | 35915 ft | 446 kts | 333° |
| 2026-05-07 21:11 | 22.58054 | -90.41834 | 35914 ft | 447 kts | 333° |
| 2026-05-07 21:11 | 22.65651 | -90.45407 | 35919 ft | 447 kts | 333° |
| 2026-05-07 21:12 | 22.71360 | -90.48095 | 35919 ft | 447 kts | 333° |
| 2026-05-07 21:12 | 22.77068 | -90.50785 | 35922 ft | 447 kts | 333° |
| 2026-05-07 21:13 | 22.82769 | -90.53475 | 35923 ft | 447 kts | 333° |
| 2026-05-07 21:13 | 22.88474 | -90.56167 | 35928 ft | 447 kts | 333° |
| 2026-05-07 21:14 | 22.94140 | -90.58845 | 35927 ft | 447 kts | 333° |
| 2026-05-07 21:14 | 22.99848 | -90.61545 | 35933 ft | 447 kts | 333° |
| 2026-05-07 21:15 | 23.05549 | -90.64244 | 35933 ft | 447 kts | 333° |
| 2026-05-07 21:15 | 23.11249 | -90.66945 | 35940 ft | 446 kts | 332° |
| 2026-05-07 21:16 | 23.16911 | -90.69630 | 35933 ft | 446 kts | 332° |
| 2026-05-07 21:16 | 23.22610 | -90.72336 | 35933 ft | 446 kts | 332° |
| 2026-05-07 21:17 | 23.28304 | -90.75041 | 35937 ft | 446 kts | 332° |
| 2026-05-07 21:17 | 23.34005 | -90.77753 | 35935 ft | 447 kts | 332° |
| 2026-05-07 21:18 | 23.39705 | -90.80466 | 35938 ft | 447 kts | 332° |
| 2026-05-07 21:18 | 23.45411 | -90.83184 | 35946 ft | 446 kts | 332° |
| 2026-05-07 21:19 | 23.51059 | -90.85877 | 35943 ft | 445 kts | 332° |
| 2026-05-07 21:19 | 23.56744 | -90.88590 | 35944 ft | 446 kts | 332° |
| 2026-05-07 21:20 | 23.62427 | -90.91306 | 35944 ft | 445 kts | 332° |
| 2026-05-07 21:20 | 23.68109 | -90.94022 | 35939 ft | 445 kts | 332° |
| 2026-05-07 21:21 | 23.73783 | -90.96738 | 35942 ft | 445 kts | 332° |
| 2026-05-07 21:21 | 23.79434 | -90.99446 | 35945 ft | 445 kts | 331° |
| 2026-05-07 21:22 | 23.85095 | -91.02160 | 35942 ft | 444 kts | 331° |
| 2026-05-07 21:22 | 23.90766 | -91.04883 | 35947 ft | 444 kts | 331° |
| 2026-05-07 21:23 | 23.96429 | -91.07604 | 35941 ft | 444 kts | 331° |
| 2026-05-07 21:23 | 24.02056 | -91.10310 | 35944 ft | 444 kts | 331° |
| 2026-05-07 21:24 | 24.07726 | -91.13040 | 35953 ft | 444 kts | 331° |
| 2026-05-07 21:24 | 24.13379 | -91.15764 | 35944 ft | 444 kts | 331° |
| 2026-05-07 21:25 | 24.19045 | -91.18497 | 35944 ft | 445 kts | 331° |
| 2026-05-07 21:25 | 24.24717 | -91.21235 | 35943 ft | 445 kts | 331° |
| 2026-05-07 21:26 | 24.30338 | -91.23951 | 35945 ft | 445 kts | 331° |
| 2026-05-07 21:26 | 24.36004 | -91.26692 | 35945 ft | 444 kts | 331° |
| 2026-05-07 21:27 | 24.41665 | -91.29433 | 35947 ft | 445 kts | 331° |
| 2026-05-07 21:27 | 24.47339 | -91.32182 | 35945 ft | 445 kts | 331° |
| 2026-05-07 21:28 | 24.52806 | -91.35291 | 35955 ft | 440 kts | 325° |
| 2026-05-07 21:28 | 24.58103 | -91.38669 | 35944 ft | 440 kts | 324° |
| 2026-05-07 21:29 | 24.63399 | -91.42067 | 35945 ft | 440 kts | 324° |
| 2026-05-07 21:29 | 24.68689 | -91.45466 | 35944 ft | 440 kts | 324° |
| 2026-05-07 21:30 | 24.73977 | -91.48867 | 35944 ft | 440 kts | 324° |
| 2026-05-07 21:30 | 24.79244 | -91.52259 | 35943 ft | 440 kts | 324° |
| 2026-05-07 21:31 | 24.84535 | -91.55669 | 35943 ft | 441 kts | 324° |
| 2026-05-07 21:31 | 24.89823 | -91.59080 | 35941 ft | 441 kts | 324° |
| 2026-05-07 21:32 | 24.95116 | -91.62498 | 35944 ft | 441 kts | 324° |
| 2026-05-07 21:32 | 25.00408 | -91.65919 | 35956 ft | 441 kts | 324° |
| 2026-05-07 21:33 | 25.05660 | -91.69318 | 35943 ft | 440 kts | 324° |
| 2026-05-07 21:33 | 25.10944 | -91.72740 | 35940 ft | 440 kts | 324° |
| 2026-05-07 21:34 | 25.16229 | -91.76167 | 35941 ft | 440 kts | 324° |
| 2026-05-07 21:34 | 25.21506 | -91.79592 | 35940 ft | 440 kts | 324° |
| 2026-05-07 21:35 | 25.26782 | -91.83020 | 35943 ft | 440 kts | 324° |
| 2026-05-07 21:35 | 25.32028 | -91.86432 | 35956 ft | 440 kts | 324° |
| 2026-05-07 21:36 | 25.37300 | -91.89864 | 35938 ft | 439 kts | 324° |
| 2026-05-07 21:36 | 25.42563 | -91.93294 | 35942 ft | 439 kts | 323° |
| 2026-05-07 21:37 | 25.47826 | -91.96728 | 35943 ft | 439 kts | 323° |
| 2026-05-07 21:37 | 25.53059 | -92.00145 | 35946 ft | 439 kts | 323° |
| 2026-05-07 21:38 | 25.58317 | -92.03582 | 35943 ft | 439 kts | 323° |
| 2026-05-07 21:38 | 25.63577 | -92.07024 | 35959 ft | 438 kts | 323° |
| 2026-05-07 21:39 | 25.68798 | -92.10444 | 35945 ft | 438 kts | 323° |
| 2026-05-07 21:39 | 25.74049 | -92.13887 | 35943 ft | 438 kts | 323° |
| 2026-05-07 21:40 | 25.79295 | -92.17331 | 35942 ft | 438 kts | 323° |
| 2026-05-07 21:40 | 25.84537 | -92.20775 | 35940 ft | 438 kts | 323° |
| 2026-05-07 21:41 | 25.89777 | -92.24222 | 35945 ft | 438 kts | 323° |
| 2026-05-07 21:41 | 25.95019 | -92.27674 | 35955 ft | 437 kts | 323° |
| 2026-05-07 21:42 | 26.00211 | -92.31096 | 35944 ft | 436 kts | 323° |
| 2026-05-07 21:42 | 26.05430 | -92.34540 | 35942 ft | 436 kts | 323° |
| 2026-05-07 21:43 | 26.10647 | -92.37986 | 35941 ft | 436 kts | 323° |
| 2026-05-07 21:43 | 26.15873 | -92.41442 | 35941 ft | 436 kts | 323° |
| 2026-05-07 21:44 | 26.21092 | -92.44896 | 35941 ft | 436 kts | 323° |
| 2026-05-07 21:44 | 26.26305 | -92.48351 | 35950 ft | 436 kts | 323° |
| 2026-05-07 21:45 | 26.31511 | -92.51804 | 35941 ft | 435 kts | 323° |
| 2026-05-07 21:45 | 26.36685 | -92.55239 | 35943 ft | 435 kts | 323° |
| 2026-05-07 21:46 | 26.41888 | -92.58698 | 35938 ft | 435 kts | 322° |
| 2026-05-07 21:46 | 26.47093 | -92.62161 | 35938 ft | 435 kts | 322° |
| 2026-05-07 21:47 | 26.52292 | -92.65625 | 35941 ft | 435 kts | 322° |
| 2026-05-07 21:47 | 26.57487 | -92.69085 | 35948 ft | 433 kts | 322° |
| 2026-05-07 21:48 | 26.62644 | -92.72533 | 35949 ft | 432 kts | 322° |
| 2026-05-07 21:48 | 26.67803 | -92.75978 | 35935 ft | 432 kts | 322° |
| 2026-05-07 21:49 | 26.72967 | -92.79431 | 35940 ft | 432 kts | 322° |
| 2026-05-07 21:49 | 26.78091 | -92.82862 | 35942 ft | 432 kts | 322° |
| 2026-05-07 21:50 | 26.83487 | -92.85956 | 35953 ft | 438 kts | 328° |
| 2026-05-07 21:50 | 26.89035 | -92.88780 | 35942 ft | 437 kts | 328° |
| 2026-05-07 21:51 | 26.94584 | -92.91589 | 35948 ft | 438 kts | 328° |
| 2026-05-07 21:51 | 27.00144 | -92.94404 | 35948 ft | 438 kts | 328° |
| 2026-05-07 21:52 | 27.05697 | -92.97219 | 35946 ft | 438 kts | 328° |
| 2026-05-07 21:52 | 27.11214 | -93.00018 | 35946 ft | 438 kts | 328° |
| 2026-05-07 21:53 | 27.16770 | -93.02841 | 35960 ft | 437 kts | 327° |
| 2026-05-07 21:53 | 27.22309 | -93.05658 | 35949 ft | 436 kts | 327° |
| 2026-05-07 21:54 | 27.27858 | -93.08483 | 35951 ft | 438 kts | 327° |
| 2026-05-07 21:54 | 27.33375 | -93.11295 | 35952 ft | 438 kts | 327° |
| 2026-05-07 21:55 | 27.38929 | -93.14128 | 35955 ft | 438 kts | 327° |
| 2026-05-07 21:55 | 27.44482 | -93.16965 | 35975 ft | 437 kts | 327° |
| 2026-05-07 21:56 | 27.49984 | -93.19778 | 35953 ft | 437 kts | 327° |
| 2026-05-07 21:56 | 27.55524 | -93.22615 | 35953 ft | 437 kts | 327° |
| 2026-05-07 21:57 | 27.61062 | -93.25453 | 35952 ft | 437 kts | 327° |
| 2026-05-07 21:57 | 27.66598 | -93.28293 | 35952 ft | 437 kts | 327° |
| 2026-05-07 21:58 | 27.72129 | -93.31134 | 35958 ft | 437 kts | 327° |
| 2026-05-07 21:58 | 27.76727 | -93.33498 | 35958 ft | 437 kts | 327° |
| 2026-05-07 21:59 | 27.83165 | -93.36813 | 35961 ft | 437 kts | 327° |
| 2026-05-07 21:59 | 27.87762 | -93.39181 | 35960 ft | 437 kts | 327° |
| 2026-05-07 22:00 | 27.93293 | -93.42035 | 35962 ft | 437 kts | 327° |
| 2026-05-07 22:00 | 27.98820 | -93.44889 | 35963 ft | 437 kts | 327° |
| 2026-05-07 22:01 | 28.04353 | -93.47751 | 35978 ft | 437 kts | 326° |
| 2026-05-07 22:01 | 28.09853 | -93.50597 | 35966 ft | 437 kts | 326° |
| 2026-05-07 22:02 | 28.15392 | -93.53467 | 35965 ft | 437 kts | 326° |
| 2026-05-07 22:02 | 28.20925 | -93.56338 | 35966 ft | 437 kts | 326° |
| 2026-05-07 22:03 | 28.26455 | -93.59210 | 35975 ft | 437 kts | 326° |
| 2026-05-07 22:03 | 28.31949 | -93.62066 | 35974 ft | 437 kts | 326° |
| 2026-05-07 22:04 | 28.37478 | -93.64945 | 35975 ft | 436 kts | 326° |
| 2026-05-07 22:04 | 28.43002 | -93.67823 | 35977 ft | 437 kts | 326° |
| 2026-05-07 22:05 | 28.48528 | -93.70707 | 35976 ft | 437 kts | 326° |
| 2026-05-07 22:05 | 28.54051 | -93.73592 | 35979 ft | 437 kts | 326° |
| 2026-05-07 22:06 | 28.59542 | -93.76464 | 35981 ft | 436 kts | 326° |
| 2026-05-07 22:06 | 28.65051 | -93.79348 | 35990 ft | 430 kts | 325° |
| 2026-05-07 22:07 | 28.67718 | -93.80742 | 35959 ft | 414 kts | 325° |
| 2026-05-07 22:07 | 28.70303 | -93.82099 | 35733 ft | 405 kts | 324° |
| 2026-05-07 22:07 | 28.72860 | -93.83442 | 35250 ft | 403 kts | 325° |
| 2026-05-07 22:07 | 28.75414 | -93.84783 | 34677 ft | 405 kts | 325° |
| 2026-05-07 22:08 | 28.77976 | -93.86129 | 34173 ft | 405 kts | 325° |
| 2026-05-07 22:08 | 28.80538 | -93.87475 | 33637 ft | 404 kts | 325° |
| 2026-05-07 22:08 | 28.83055 | -93.88798 | 33127 ft | 403 kts | 325° |
| 2026-05-07 22:08 | 28.85591 | -93.90132 | 32641 ft | 400 kts | 325° |
| 2026-05-07 22:09 | 28.88118 | -93.91462 | 32196 ft | 398 kts | 325° |
| 2026-05-07 22:09 | 28.90631 | -93.92785 | 31767 ft | 396 kts | 325° |
| 2026-05-07 22:09 | 28.93138 | -93.94106 | 31288 ft | 394 kts | 324° |
| 2026-05-07 22:09 | 28.95631 | -93.95420 | 30832 ft | 393 kts | 324° |
| 2026-05-07 22:10 | 28.98114 | -93.96729 | 30382 ft | 392 kts | 324° |
| 2026-05-07 22:10 | 29.00586 | -93.98033 | 29922 ft | 390 kts | 324° |
| 2026-05-07 22:10 | 29.03018 | -93.99316 | 29425 ft | 389 kts | 324° |
| 2026-05-07 22:10 | 29.05362 | -94.00762 | 28913 ft | 373 kts | 312° |
| 2026-05-07 22:11 | 29.07198 | -94.02743 | 28484 ft | 360 kts | 306° |
| 2026-05-07 22:11 | 29.08998 | -94.04714 | 28159 ft | 356 kts | 307° |
| 2026-05-07 22:11 | 29.10770 | -94.06668 | 27780 ft | 352 kts | 306° |
| 2026-05-07 22:11 | 29.12516 | -94.08614 | 27402 ft | 348 kts | 306° |
| 2026-05-07 22:12 | 29.14238 | -94.10546 | 27025 ft | 346 kts | 306° |
| 2026-05-07 22:12 | 29.15956 | -94.12478 | 26507 ft | 347 kts | 307° |
| 2026-05-07 22:12 | 29.17697 | -94.14441 | 25961 ft | 358 kts | 307° |
| 2026-05-07 22:12 | 29.19509 | -94.16486 | 25404 ft | 372 kts | 307° |
| 2026-05-07 22:13 | 29.21348 | -94.18559 | 24827 ft | 377 kts | 308° |
| 2026-05-07 22:13 | 29.23223 | -94.20674 | 24258 ft | 380 kts | 308° |
| 2026-05-07 22:13 | 29.25107 | -94.22802 | 23680 ft | 381 kts | 308° |
| 2026-05-07 22:13 | 29.26999 | -94.24941 | 22983 ft | 384 kts | 308° |
| 2026-05-07 22:14 | 29.28907 | -94.27098 | 22331 ft | 385 kts | 308° |
| 2026-05-07 22:14 | 29.30816 | -94.29260 | 21715 ft | 385 kts | 308° |
| 2026-05-07 22:14 | 29.32726 | -94.31421 | 21102 ft | 385 kts | 308° |
| 2026-05-07 22:14 | 29.34634 | -94.33583 | 20482 ft | 386 kts | 308° |
| 2026-05-07 22:15 | 29.36467 | -94.35813 | 19829 ft | 380 kts | 299° |
| 2026-05-07 22:15 | 29.37618 | -94.38466 | 19210 ft | 368 kts | 281° |
| 2026-05-07 22:15 | 29.38061 | -94.41303 | 18742 ft | 355 kts | 274° |
| 2026-05-07 22:15 | 29.38404 | -94.44017 | 18266 ft | 342 kts | 274° |
| 2026-05-07 22:16 | 29.38714 | -94.46676 | 17694 ft | 332 kts | 273° |
| 2026-05-07 22:16 | 29.39006 | -94.49306 | 17130 ft | 333 kts | 273° |
| 2026-05-07 22:16 | 29.39289 | -94.51939 | 16633 ft | 332 kts | 273° |
| 2026-05-07 22:16 | 29.39565 | -94.54568 | 16152 ft | 331 kts | 273° |
| 2026-05-07 22:17 | 29.39839 | -94.57194 | 15668 ft | 331 kts | 273° |
| 2026-05-07 22:17 | 29.40111 | -94.59817 | 15180 ft | 331 kts | 274° |
| 2026-05-07 22:17 | 29.40384 | -94.62450 | 14673 ft | 333 kts | 274° |
| 2026-05-07 22:17 | 29.40658 | -94.65102 | 14168 ft | 335 kts | 275° |
| 2026-05-07 22:18 | 29.41288 | -94.67685 | 13634 ft | 341 kts | 290° |
| 2026-05-07 22:18 | 29.43135 | -94.72667 | 12716 ft | 337 kts | 290° |
| 2026-05-07 22:18 | 29.44043 | -94.75135 | 12261 ft | 331 kts | 290° |
| 2026-05-07 22:19 | 29.44912 | -94.77495 | 11845 ft | 319 kts | 290° |
| 2026-05-07 22:19 | 29.45762 | -94.79801 | 11441 ft | 308 kts | 291° |
| 2026-05-07 22:19 | 29.46583 | -94.82034 | 11043 ft | 298 kts | 291° |
| 2026-05-07 22:19 | 29.47376 | -94.84193 | 10653 ft | 289 kts | 291° |
| 2026-05-07 22:20 | 29.48149 | -94.86295 | 10295 ft | 283 kts | 291° |
| 2026-05-07 22:20 | 29.48912 | -94.88385 | 9967 ft | 282 kts | 290° |
| 2026-05-07 22:20 | 29.49661 | -94.90457 | 9688 ft | 279 kts | 291° |
| 2026-05-07 22:20 | 29.50400 | -94.92495 | 9452 ft | 274 kts | 291° |
| 2026-05-07 22:21 | 29.51128 | -94.94513 | 9238 ft | 274 kts | 291° |
| 2026-05-07 22:21 | 29.51859 | -94.96535 | 9022 ft | 274 kts | 291° |
| 2026-05-07 22:21 | 29.52590 | -94.98555 | 8784 ft | 273 kts | 291° |
| 2026-05-07 22:21 | 29.53315 | -95.00567 | 8532 ft | 272 kts | 292° |
| 2026-05-07 22:22 | 29.54035 | -95.02560 | 8296 ft | 273 kts | 291° |
| 2026-05-07 22:22 | 29.54760 | -95.04569 | 8078 ft | 272 kts | 291° |
| 2026-05-07 22:22 | 29.55485 | -95.06578 | 7843 ft | 272 kts | 292° |
| 2026-05-07 22:22 | 29.56207 | -95.08583 | 7621 ft | 272 kts | 292° |
| 2026-05-07 22:23 | 29.56932 | -95.10599 | 7436 ft | 272 kts | 292° |
| 2026-05-07 22:23 | 29.57654 | -95.12612 | 7207 ft | 273 kts | 290° |
| 2026-05-07 22:23 | 29.57948 | -95.14744 | 6880 ft | 271 kts | 264° |
| 2026-05-07 22:23 | 29.57625 | -95.16862 | 6651 ft | 267 kts | 259° |
| 2026-05-07 22:24 | 29.57282 | -95.18916 | 6452 ft | 262 kts | 258° |
| 2026-05-07 22:24 | 29.56931 | -95.20958 | 6246 ft | 258 kts | 258° |
| 2026-05-07 22:24 | 29.56577 | -95.22960 | 6078 ft | 253 kts | 256° |
| 2026-05-07 22:24 | 29.55836 | -95.24716 | 6022 ft | 241 kts | 227° |
| 2026-05-07 22:25 | 29.54676 | -95.26050 | 6094 ft | 233 kts | 225° |
| 2026-05-07 22:25 | 29.53531 | -95.27367 | 5919 ft | 233 kts | 224° |
| 2026-05-07 22:25 | 29.52363 | -95.28656 | 5779 ft | 230 kts | 223° |
| 2026-05-07 22:25 | 29.51204 | -95.29934 | 5494 ft | 233 kts | 224° |
| 2026-05-07 22:26 | 29.50046 | -95.31209 | 5276 ft | 231 kts | 224° |
| 2026-05-07 22:26 | 29.48888 | -95.32487 | 5000 ft | 230 kts | 225° |
| 2026-05-07 22:26 | 29.48063 | -95.34024 | 4704 ft | 228 kts | 259° |
| 2026-05-07 22:26 | 29.48250 | -95.35769 | 4383 ft | 228 kts | 299° |
| 2026-05-07 22:27 | 29.49249 | -95.37173 | 4034 ft | 230 kts | 316° |
| 2026-05-07 22:27 | 29.50387 | -95.38447 | 3728 ft | 227 kts | 317° |
| 2026-05-07 22:27 | 29.51732 | -95.39392 | 3228 ft | 227 kts | 347° |
| 2026-05-07 22:27 | 29.53260 | -95.39442 | 2870 ft | 217 kts | 17° |
| 2026-05-07 22:28 | 29.54603 | -95.38753 | 2551 ft | 208 kts | 38° |
| 2026-05-07 22:28 | 29.55680 | -95.37692 | 2272 ft | 201 kts | 46° |
| 2026-05-07 22:28 | 29.56656 | -95.36570 | 1989 ft | 195 kts | 46° |
| 2026-05-07 22:28 | 29.57578 | -95.35532 | 1750 ft | 174 kts | 44° |
| 2026-05-07 22:29 | 29.58392 | -95.34631 | 1521 ft | 151 kts | 43° |
| 2026-05-07 22:29 | 29.59107 | -95.33842 | 1340 ft | 138 kts | 43° |
| 2026-05-07 22:29 | 29.59804 | -95.33076 | 1125 ft | 141 kts | 42° |
| 2026-05-07 22:29 | 29.60509 | -95.32303 | 977 ft | 143 kts | 44° |
| 2026-05-07 22:30 | 29.61221 | -95.31485 | 778 ft | 144 kts | 43° |
| 2026-05-07 22:30 | 29.61930 | -95.30696 | 608 ft | 143 kts | 43° |
| 2026-05-07 22:30 | 29.62662 | -95.29908 | 426 ft | 143 kts | 45° |
| 2026-05-07 22:30 | 29.63382 | -95.29107 | 244 ft | 142 kts | 44° |
| 2026-05-07 22:31 | 29.64082 | -95.28340 | 63 ft | 136 kts | 43° |
| 2026-05-07 22:31 | 29.64642 | -95.27724 | 51 ft | 73 kts | 44° |
| 2026-05-07 22:31 | 29.64843 | -95.27522 | 54 ft | 18 kts | 15° |
| 2026-05-07 22:31 | 29.64949 | -95.27530 | 51 ft | 14 kts | 2° |
| 2026-05-07 22:32 | 29.65046 | -95.27524 | 54 ft | 15 kts | 359° |
| 2026-05-07 22:32 | 29.65102 | -95.27595 | 54 ft | 14 kts | 269° |
| 2026-05-07 22:32 | 29.65138 | -95.27708 | 51 ft | 16 kts | 284° |
| 2026-05-07 22:32 | 29.65139 | -95.27821 | 51 ft | 15 kts | 268° |
| 2026-05-07 22:33 | 29.65169 | -95.27901 | 49 ft | 4 kts | 313° |
| 2026-05-07 22:33 | 29.65173 | -95.27906 | 54 ft | 0 kts | 313° |
| 2026-05-07 22:34 | 29.65179 | -95.27912 | 54 ft | 3 kts | 313° |
| 2026-05-07 22:34 | 29.65198 | -95.27936 | 54 ft | 6 kts | 313° |
| 2026-05-07 22:34 | 29.65231 | -95.27977 | 52 ft | 8 kts | 313° |
| 2026-05-07 22:34 | 29.65283 | -95.28026 | 53 ft | 11 kts | 349° |
| 2026-05-07 22:35 | 29.65340 | -95.27972 | 54 ft | 12 kts | 62° |
| 2026-05-07 22:35 | 29.65390 | -95.27936 | 50 ft | 7 kts | 347° |
| 2026-05-07 22:35 | 29.65403 | -95.27941 | 54 ft | 3 kts | 340° |
| 2026-05-07 22:35 | 29.65411 | -95.27945 | 54 ft | 0 kts | 339° |